createdAt,value
2023-02-26T00:01:15.931Z,1.10
2023-02-26T00:04:21.125Z,0.80
2023-02-26T00:07:27.721Z,1.55
2023-02-26T00:10:32.678Z,0.85
2023-02-26T00:13:43.795Z,1.20
2023-02-26T00:16:50.822Z,1.30
2023-02-26T00:19:56.552Z,1.48
2023-02-26T00:23:01.847Z,1.80
2023-02-26T00:26:07.415Z,1.30
2023-02-26T00:29:16.008Z,1.50
2023-02-26T00:32:22.329Z,0.85
2023-02-26T00:35:28.089Z,1.20
2023-02-26T00:38:37.359Z,1.15
2023-02-26T00:41:44.266Z,1.27
2023-02-26T00:44:53.632Z,0.90
2023-02-26T00:48:09.850Z,1.20
2023-02-26T00:51:22.265Z,0.95
2023-02-26T00:54:28.342Z,1.37
2023-02-26T00:57:33.756Z,1.10
2023-02-26T01:00:41.309Z,0.98
2023-02-26T01:03:47.441Z,0.82
2023-02-26T01:06:53.540Z,1.23
2023-02-26T01:09:59.032Z,1.10
2023-02-26T01:13:06.236Z,1.40
2023-02-26T01:16:21.068Z,1.08
2023-02-26T01:19:33.326Z,1.00
2023-02-26T01:22:42.590Z,1.23
2023-02-26T01:25:58.184Z,1.10
2023-02-26T01:29:03.834Z,1.48
2023-02-26T01:32:17.191Z,1.38
2023-02-26T01:35:27.494Z,1.38
2023-02-26T01:38:35.470Z,1.10
2023-02-26T01:41:46.610Z,1.40
2023-02-26T01:44:57.703Z,1.60
2023-02-26T01:48:08.270Z,1.25
2023-02-26T01:51:13.358Z,1.50
2023-02-26T01:54:22.300Z,1.20
2023-02-26T01:57:29.093Z,1.40
2023-02-26T02:00:34.461Z,1.10
2023-02-26T02:03:44.157Z,1.50
2023-02-26T02:06:50.213Z,1.23
2023-02-26T02:09:55.959Z,1.23
2023-02-26T02:13:06.796Z,1.73
2023-02-26T02:16:17.743Z,1.67
2023-02-26T02:19:40.512Z,1.15
2023-02-26T02:22:55.081Z,1.42
2023-02-26T02:26:17.747Z,1.00
2023-02-26T02:29:36.536Z,1.25
2023-02-26T02:32:47.709Z,1.42
2023-02-26T02:35:55.984Z,1.08
2023-02-26T02:39:03.507Z,1.65
2023-02-26T02:42:10.698Z,1.58
2023-02-26T02:45:19.651Z,0.85
2023-02-26T02:48:29.366Z,1.17
2023-02-26T02:51:36.102Z,1.10
2023-02-26T02:54:43.799Z,1.00
2023-02-26T02:57:51.504Z,0.70
2023-02-26T03:00:59.011Z,1.20
2023-02-26T03:04:10.491Z,0.70
2023-02-26T03:07:15.780Z,1.23
2023-02-26T03:10:22.506Z,1.58
2023-02-26T03:13:28.399Z,0.98
2023-02-26T03:16:42.695Z,1.17
2023-02-26T03:19:56.492Z,0.98
2023-02-26T03:23:06.481Z,0.88
2023-02-26T03:26:14.814Z,0.88
2023-02-26T03:29:25.210Z,0.85
2023-02-26T03:32:33.103Z,0.68
2023-02-26T03:35:46.628Z,1.02
2023-02-26T03:38:53.581Z,0.73
2023-02-26T03:42:13.407Z,0.80
2023-02-26T03:45:22.954Z,0.98
2023-02-26T03:48:31.444Z,0.75
2023-02-26T03:51:39.827Z,1.10
2023-02-26T03:54:48.302Z,0.73
2023-02-26T03:57:55.623Z,0.50
2023-02-26T04:01:02.550Z,0.60
2023-02-26T04:04:08.879Z,0.50
2023-02-26T04:07:17.948Z,0.88
2023-02-26T04:10:24.827Z,1.08
2023-02-26T04:13:32.423Z,0.65
2023-02-26T04:16:39.032Z,0.80
2023-02-26T04:19:45.745Z,0.88
2023-02-26T04:22:53.212Z,1.20
2023-02-26T04:25:58.454Z,0.77
2023-02-26T04:29:05.568Z,1.10
2023-02-26T04:32:13.332Z,1.02
2023-02-26T04:35:18.681Z,1.00
2023-02-26T04:38:34.880Z,1.02
2023-02-26T04:41:39.872Z,0.90
2023-02-26T04:44:46.281Z,0.90
2023-02-26T04:47:51.640Z,1.02
2023-02-26T04:50:56.884Z,1.25
2023-02-26T04:54:04.414Z,0.90
2023-02-26T04:57:10.207Z,0.90
2023-02-26T05:00:16.253Z,1.00
2023-02-26T05:03:21.576Z,0.93
2023-02-26T05:06:26.652Z,0.90
2023-02-26T05:09:36.429Z,0.75
2023-02-26T05:12:41.502Z,1.02
2023-02-26T05:15:46.744Z,1.10
2023-02-26T05:18:53.487Z,0.90
2023-02-26T05:21:58.720Z,0.98
2023-02-26T05:25:12.659Z,1.02
2023-02-26T05:28:21.093Z,1.17
2023-02-26T05:31:27.058Z,0.95
2023-02-26T05:34:32.646Z,1.30
2023-02-26T05:37:37.641Z,1.00
2023-02-26T05:40:45.781Z,1.13
2023-02-26T05:43:50.616Z,1.10
2023-02-26T05:46:59.936Z,0.80
2023-02-26T05:50:04.945Z,0.88
2023-02-26T05:53:10.607Z,1.65
2023-02-26T05:56:18.803Z,0.90
2023-02-26T05:59:23.938Z,1.23
2023-02-26T06:02:29.191Z,0.70
2023-02-26T06:05:39.401Z,1.30
2023-02-26T06:08:44.246Z,1.60
2023-02-26T06:11:52.092Z,1.45
2023-02-26T06:14:58.308Z,1.20
2023-02-26T06:18:03.444Z,0.90
2023-02-26T06:21:09.157Z,1.02
2023-02-26T06:24:14.295Z,0.70
2023-02-26T06:27:21.781Z,0.90
2023-02-26T06:30:29.201Z,1.15
2023-02-26T06:33:34.403Z,1.63
2023-02-26T06:36:39.790Z,0.85
2023-02-26T06:39:44.981Z,0.90
2023-02-26T06:42:54.275Z,0.95
2023-02-26T06:46:00.666Z,0.90
2023-02-26T06:49:06.221Z,0.95
2023-02-26T06:52:11.087Z,0.82
2023-02-26T06:55:16.460Z,0.90
2023-02-26T06:58:26.188Z,1.35
2023-02-26T07:01:32.182Z,0.80
2023-02-26T07:04:37.272Z,1.50
2023-02-26T07:07:42.820Z,0.68
2023-02-26T07:10:49.720Z,1.02
2023-02-26T07:13:58.350Z,0.77
2023-02-26T07:17:03.329Z,0.80
2023-02-26T07:20:10.360Z,0.70
2023-02-26T07:23:15.594Z,0.98
2023-02-26T07:26:21.676Z,0.70
2023-02-26T07:29:29.545Z,0.95
2023-02-26T07:32:34.952Z,1.05
2023-02-26T07:35:40.030Z,0.70
2023-02-26T07:38:45.332Z,0.60
2023-02-26T07:41:50.362Z,0.63
2023-02-26T07:44:59.352Z,1.17
2023-02-26T07:48:04.418Z,1.98
2023-02-26T07:51:12.394Z,1.85
2023-02-26T07:54:17.370Z,0.90
2023-02-26T07:57:22.679Z,0.65
2023-02-26T08:00:32.512Z,0.60
2023-02-26T08:03:38.127Z,0.90
2023-02-26T08:06:43.028Z,0.65
2023-02-26T08:09:48.708Z,1.35
2023-02-26T08:12:53.701Z,0.70
2023-02-26T08:16:01.971Z,1.15
2023-02-26T08:19:08.903Z,0.88
2023-02-26T08:22:23.569Z,1.70
2023-02-26T08:28:38.025Z,1.30
2023-02-26T08:31:45.543Z,0.90
2023-02-26T08:34:53.280Z,1.00
2023-02-26T08:37:58.361Z,0.77
2023-02-26T08:41:05.055Z,0.65
2023-02-26T08:44:13.076Z,0.70
2023-02-26T08:47:28.732Z,0.93
2023-02-26T08:50:33.989Z,0.70
2023-02-26T08:53:42.131Z,0.77
2023-02-26T08:56:47.005Z,0.82
2023-02-26T08:59:55.530Z,0.80
2023-02-26T09:03:06.324Z,0.63
2023-02-26T09:06:12.143Z,1.80
2023-02-26T09:09:17.335Z,0.68
2023-02-26T09:12:23.195Z,1.45
2023-02-26T09:15:28.733Z,1.00
2023-02-26T09:18:40.087Z,0.68
2023-02-26T09:21:47.017Z,0.68
2023-02-26T09:24:56.069Z,1.00
2023-02-26T09:28:02.524Z,0.70
2023-02-26T09:31:09.013Z,0.52
2023-02-26T09:34:22.375Z,0.82
2023-02-26T09:37:27.810Z,0.60
2023-02-26T09:40:37.420Z,0.50
2023-02-26T09:43:57.720Z,1.00
2023-02-26T09:47:05.144Z,0.60
2023-02-26T09:50:19.560Z,0.95
2023-02-26T09:53:28.991Z,0.50
2023-02-26T09:56:37.007Z,0.70
2023-02-26T09:59:41.894Z,0.57
2023-02-26T10:02:53.082Z,0.73
2023-02-26T10:06:12.099Z,0.63
2023-02-26T10:09:30.855Z,0.40
2023-02-26T10:12:37.802Z,0.70
2023-02-26T10:15:46.098Z,0.98
2023-02-26T10:18:53.229Z,0.60
2023-02-26T10:22:04.065Z,0.50
2023-02-26T10:25:10.878Z,0.50
2023-02-26T10:28:28.632Z,0.60
2023-02-26T10:31:38.916Z,0.68
2023-02-26T10:34:50.805Z,0.40
2023-02-26T10:38:00.240Z,0.70
2023-02-26T10:41:12.014Z,0.98
2023-02-26T10:44:20.913Z,0.50
2023-02-26T10:47:32.100Z,0.70
2023-02-26T10:50:37.436Z,0.60
2023-02-26T10:53:46.354Z,0.73
2023-02-26T10:56:51.548Z,0.82
2023-02-26T10:59:56.898Z,0.60
2023-02-26T11:03:02.109Z,0.70
2023-02-26T11:06:08.362Z,0.77
2023-02-26T11:09:23.022Z,0.52
2023-02-26T11:12:31.077Z,0.68
2023-02-26T11:15:36.374Z,0.77
2023-02-26T11:18:44.574Z,0.70
2023-02-26T11:21:50.685Z,0.70
2023-02-26T11:25:07.313Z,0.45
2023-02-26T11:28:22.953Z,0.70
2023-02-26T11:31:33.146Z,0.52
2023-02-26T11:34:40.635Z,0.57
2023-02-26T11:37:56.060Z,0.50
2023-02-26T11:41:05.260Z,0.70
2023-02-26T11:44:13.901Z,0.77
2023-02-26T11:47:20.012Z,0.50
2023-02-26T11:50:26.243Z,0.50
2023-02-26T11:53:34.104Z,0.50
2023-02-26T11:56:44.673Z,0.90
2023-02-26T11:59:51.535Z,0.75
2023-02-26T12:03:04.256Z,0.65
2023-02-26T12:06:10.084Z,0.52
2023-02-26T12:09:18.483Z,0.57
2023-02-26T12:12:41.912Z,0.68
2023-02-26T12:15:55.388Z,0.50
2023-02-26T12:19:05.553Z,0.55
2023-02-26T12:22:29.237Z,1.05
2023-02-26T12:25:43.088Z,0.55
2023-02-26T12:29:03.288Z,0.60
2023-02-26T12:32:16.408Z,0.50
2023-02-26T12:35:33.978Z,1.05
2023-02-26T12:38:44.369Z,0.40
2023-02-26T12:41:56.656Z,0.63
2023-02-26T12:48:19.269Z,0.40
2023-02-26T12:51:35.596Z,1.08
2023-02-26T12:54:46.668Z,0.50
2023-02-26T12:58:03.376Z,0.60
2023-02-26T13:01:17.245Z,0.65
2023-02-26T13:04:34.086Z,0.60
2023-02-26T13:07:49.838Z,0.57
2023-02-26T13:11:00.208Z,0.55
2023-02-26T13:14:11.891Z,0.80
2023-02-26T13:17:20.618Z,0.57
2023-02-26T13:20:29.639Z,0.68
2023-02-26T13:23:38.274Z,0.63
2023-02-26T13:26:44.096Z,0.50
2023-02-26T13:29:51.241Z,0.60
2023-02-26T13:32:57.937Z,0.60
2023-02-26T13:36:08.342Z,0.70
2023-02-26T13:39:25.149Z,0.70
2023-02-26T13:42:33.685Z,0.43
2023-02-26T13:45:45.434Z,0.50
2023-02-26T13:48:56.198Z,0.90
2023-02-26T13:52:04.308Z,0.50
2023-02-26T13:55:09.771Z,0.60
2023-02-26T13:58:30.626Z,0.50
2023-02-26T14:01:36.021Z,0.70
2023-02-26T14:04:53.370Z,0.50
2023-02-26T14:08:11.980Z,0.43
2023-02-26T14:11:36.450Z,0.63
2023-02-26T14:14:43.080Z,0.40
2023-02-26T14:17:51.633Z,0.50
2023-02-26T14:21:16.732Z,0.50
2023-02-26T14:24:26.649Z,0.50
2023-02-26T14:27:36.000Z,0.60
2023-02-26T14:30:59.310Z,0.60
2023-02-26T14:34:12.226Z,0.60
2023-02-26T14:37:19.313Z,0.77
2023-02-26T14:40:27.984Z,0.55
2023-02-26T14:43:38.108Z,0.63
2023-02-26T14:46:43.130Z,0.47
2023-02-26T14:49:49.691Z,0.68
2023-02-26T14:53:02.441Z,0.80
2023-02-26T14:56:14.901Z,0.50
2023-02-26T14:59:30.374Z,0.80
2023-02-26T15:02:41.117Z,0.40
2023-02-26T15:05:57.597Z,0.40
2023-02-26T15:09:09.690Z,0.43
2023-02-26T15:12:24.703Z,0.43
2023-02-26T15:15:36.487Z,0.70
2023-02-26T15:18:57.920Z,0.52
2023-02-26T15:22:06.505Z,0.50
2023-02-26T15:25:19.990Z,0.40
2023-02-26T15:28:29.685Z,0.70
2023-02-26T15:31:37.896Z,0.50
2023-02-26T15:34:45.529Z,0.55
2023-02-26T15:37:54.161Z,0.40
2023-02-26T15:41:04.356Z,0.40
2023-02-26T15:44:14.346Z,0.40
2023-02-26T15:47:20.412Z,0.50
2023-02-26T15:50:28.702Z,0.55
2023-02-26T15:53:35.041Z,0.47
2023-02-26T15:56:41.488Z,0.50
2023-02-26T15:59:51.316Z,0.60
2023-02-26T16:03:02.418Z,0.65
2023-02-26T16:06:11.777Z,0.60
2023-02-26T16:09:27.549Z,0.93
2023-02-26T16:12:38.809Z,0.50
2023-02-26T16:15:47.191Z,0.55
2023-02-26T16:18:54.192Z,0.40
2023-02-26T16:21:59.633Z,0.70
2023-02-26T16:25:09.655Z,0.50
2023-02-26T16:28:18.000Z,0.50
2023-02-26T16:31:31.244Z,0.45
2023-02-26T16:34:40.880Z,0.50
2023-02-26T16:37:50.189Z,0.50
2023-02-26T16:41:00.834Z,0.50
2023-02-26T16:44:33.496Z,0.63
2023-02-26T16:50:57.978Z,0.50
2023-02-26T16:54:08.388Z,0.40
2023-02-26T16:57:16.982Z,0.43
2023-02-26T17:00:31.283Z,0.40
2023-02-26T17:03:40.897Z,0.63
2023-02-26T17:06:50.383Z,0.50
2023-02-26T17:09:59.524Z,0.40
2023-02-26T17:13:16.756Z,0.83
2023-02-26T17:16:25.433Z,0.50
2023-02-26T17:19:34.118Z,0.30
2023-02-26T17:22:43.501Z,0.60
2023-02-26T17:25:52.278Z,0.50
2023-02-26T17:29:02.402Z,0.50
2023-02-26T17:35:30.072Z,0.40
2023-02-26T17:41:59.237Z,0.33
2023-02-26T17:45:05.101Z,0.40
2023-02-26T17:48:16.699Z,0.40
2023-02-26T17:51:21.822Z,0.60
2023-02-26T17:54:31.453Z,0.52
2023-02-26T17:57:37.657Z,0.90
2023-02-26T18:00:44.125Z,0.80
2023-02-26T18:03:49.380Z,0.50
2023-02-26T18:06:57.723Z,0.40
2023-02-26T18:10:06.184Z,0.63
2023-02-26T18:13:14.937Z,0.45
2023-02-26T18:16:23.355Z,0.40
2023-02-26T18:19:30.337Z,0.52
2023-02-26T18:22:43.394Z,0.60
2023-02-26T18:25:54.559Z,0.77
2023-02-26T18:28:59.475Z,0.63
2023-02-26T18:32:05.993Z,0.68
2023-02-26T18:35:11.710Z,0.57
2023-02-26T18:38:17.097Z,0.40
2023-02-26T18:41:25.046Z,0.60
2023-02-26T18:44:33.517Z,0.50
2023-02-26T18:47:41.927Z,0.50
2023-02-26T18:50:53.139Z,0.50
2023-02-26T18:53:58.341Z,0.60
2023-02-26T18:57:07.649Z,0.40
2023-02-26T19:00:14.702Z,0.40
2023-02-26T19:03:21.402Z,0.45
2023-02-26T19:06:27.755Z,0.75
2023-02-26T19:09:37.476Z,0.70
2023-02-26T19:12:45.380Z,1.05
2023-02-26T19:15:51.111Z,0.90
2023-02-26T19:18:56.240Z,0.80
2023-02-26T19:22:01.610Z,0.55
2023-02-26T19:25:11.417Z,0.50
2023-02-26T19:28:19.336Z,0.50
2023-02-26T19:31:24.467Z,0.50
2023-02-26T19:34:31.601Z,0.70
2023-02-26T19:37:36.367Z,0.77
2023-02-26T19:40:43.114Z,0.50
2023-02-26T19:43:50.884Z,0.40
2023-02-26T19:46:56.849Z,0.50
2023-02-26T19:50:01.916Z,0.82
2023-02-26T19:53:07.488Z,0.98
2023-02-26T19:56:16.443Z,0.60
2023-02-26T19:59:33.326Z,0.60
2023-02-26T20:02:39.166Z,0.52
2023-02-26T20:05:51.683Z,0.47
2023-02-26T20:09:02.793Z,0.70
2023-02-26T20:12:09.279Z,0.70
2023-02-26T20:15:17.845Z,0.68
2023-02-26T20:18:27.969Z,0.85
2023-02-26T20:21:34.819Z,0.90
2023-02-26T20:24:42.674Z,0.52
2023-02-26T20:27:47.927Z,0.45
2023-02-26T20:30:58.994Z,0.70
2023-02-26T20:34:03.945Z,0.40
2023-02-26T20:37:09.352Z,0.40
2023-02-26T20:40:15.302Z,0.30
2023-02-26T20:43:20.932Z,0.40
2023-02-26T20:46:30.971Z,0.52
2023-02-26T20:49:37.579Z,0.45
2023-02-26T20:52:43.082Z,0.50
2023-02-26T20:55:48.863Z,0.70
2023-02-26T20:58:53.727Z,0.95
2023-02-26T21:02:04.199Z,0.60
2023-02-26T21:05:09.587Z,0.70
2023-02-26T21:08:14.924Z,0.98
2023-02-26T21:11:19.821Z,0.47
2023-02-26T21:14:26.962Z,0.60
2023-02-26T21:17:35.249Z,0.50
2023-02-26T21:20:40.554Z,0.55
2023-02-26T21:23:47.266Z,0.65
2023-02-26T21:26:52.475Z,2.05
2023-02-26T21:29:57.364Z,5.10
2023-02-26T21:33:05.266Z,14.07
2023-02-26T21:36:11.607Z,30.17
2023-02-26T21:39:17.303Z,25.10
2023-02-26T21:42:23.361Z,16.13
2023-02-26T21:45:29.031Z,10.63
2023-02-26T21:48:37.684Z,4.90
2023-02-26T21:51:43.683Z,4.25
2023-02-26T21:54:50.610Z,5.85
2023-02-26T21:57:58.331Z,5.13
2023-02-26T22:01:03.153Z,5.38
2023-02-26T22:04:13.441Z,4.13
2023-02-26T22:07:18.334Z,1.98
2023-02-26T22:10:23.959Z,2.05
2023-02-26T22:13:28.796Z,1.70
2023-02-26T22:16:34.451Z,1.92
2023-02-26T22:19:41.965Z,2.60
2023-02-26T22:22:47.143Z,1.60
2023-02-26T22:25:52.061Z,2.40
2023-02-26T22:28:59.419Z,2.00
2023-02-26T22:32:04.643Z,1.70
2023-02-26T22:35:14.194Z,1.90
2023-02-26T22:38:21.356Z,1.80
2023-02-26T22:41:26.698Z,1.63
2023-02-26T22:44:34.589Z,1.40
2023-02-26T22:47:39.790Z,1.40
2023-02-26T22:50:47.754Z,1.00
2023-02-26T22:53:53.201Z,1.20
2023-02-26T22:56:58.523Z,1.20
2023-02-26T23:00:04.635Z,2.33
2023-02-26T23:03:09.771Z,1.50
2023-02-26T23:06:18.320Z,1.52
2023-02-26T23:09:23.222Z,1.30
2023-02-26T23:12:28.434Z,1.30
2023-02-26T23:15:33.266Z,1.13
2023-02-26T23:18:39.587Z,1.20
2023-02-26T23:21:47.317Z,0.80
2023-02-26T23:24:52.506Z,1.15
2023-02-26T23:27:57.710Z,0.70
2023-02-26T23:31:03.549Z,0.90
2023-02-26T23:34:08.716Z,0.90
2023-02-26T23:37:16.443Z,1.20
2023-02-26T23:40:22.356Z,2.00
2023-02-26T23:43:27.598Z,1.85
2023-02-26T23:46:34.696Z,1.90
2023-02-26T23:49:40.042Z,1.90
2023-02-26T23:52:47.459Z,2.17
2023-02-26T23:55:58.575Z,2.97
2023-02-26T23:59:03.718Z,2.05
